createdAt,value
2018-10-18T00:01:31.335Z,12.57
2018-10-18T00:04:00.020Z,13.60
2018-10-18T00:06:28.620Z,11.90
2018-10-18T00:08:57.303Z,13.40
2018-10-18T00:11:25.892Z,14.60
2018-10-18T00:13:54.499Z,12.97
2018-10-18T00:16:23.208Z,13.60
2018-10-18T00:18:51.812Z,14.83
2018-10-18T00:21:20.420Z,13.27
2018-10-18T00:23:49.712Z,12.90
2018-10-18T00:26:18.336Z,14.40
2018-10-18T00:28:46.929Z,13.10
2018-10-18T00:31:15.649Z,14.10
2018-10-18T00:33:44.245Z,14.00
2018-10-18T00:36:12.923Z,13.40
2018-10-18T00:38:41.668Z,13.50
2018-10-18T00:41:10.267Z,13.07
2018-10-18T00:43:38.867Z,11.80
2018-10-18T00:46:07.488Z,13.67
2018-10-18T00:48:36.103Z,13.50
2018-10-18T00:51:04.718Z,13.27
2018-10-18T00:53:33.574Z,13.60
2018-10-18T00:56:02.299Z,13.40
2018-10-18T00:58:30.789Z,13.37
2018-10-18T01:00:59.823Z,14.70
2018-10-18T01:03:28.448Z,12.60
2018-10-18T01:05:57.065Z,13.70
2018-10-18T01:08:25.651Z,13.57
2018-10-18T01:10:54.282Z,14.43
2018-10-18T01:13:22.859Z,13.23
2018-10-18T01:15:51.800Z,13.90
2018-10-18T01:18:20.437Z,14.07
2018-10-18T01:20:49.052Z,15.67
2018-10-18T01:23:17.681Z,13.73
2018-10-18T01:25:46.299Z,14.10
2018-10-18T01:28:14.895Z,14.40
2018-10-18T01:30:43.642Z,13.60
2018-10-18T01:33:12.224Z,13.47
2018-10-18T01:35:40.832Z,13.60
2018-10-18T01:38:09.557Z,12.60
2018-10-18T01:40:38.232Z,14.60
2018-10-18T01:43:06.884Z,15.37
2018-10-18T01:45:35.840Z,14.40
2018-10-18T01:48:04.506Z,13.73
2018-10-18T01:50:33.039Z,15.70
2018-10-18T01:53:01.761Z,13.47
2018-10-18T01:55:30.366Z,14.30
2018-10-18T01:57:59.001Z,15.17
2018-10-18T02:00:27.711Z,15.60
2018-10-18T02:02:56.344Z,13.37
2018-10-18T02:05:24.939Z,14.93
2018-10-18T02:07:53.621Z,13.73
2018-10-18T02:10:22.179Z,12.17
2018-10-18T02:12:50.779Z,13.17
2018-10-18T02:15:19.427Z,14.17
2018-10-18T02:17:48.048Z,14.57
2018-10-18T02:20:16.649Z,13.83
2018-10-18T02:22:45.277Z,13.73
2018-10-18T02:25:13.942Z,13.67
2018-10-18T02:27:42.471Z,14.50
2018-10-18T02:30:10.728Z,15.60
2018-10-18T02:32:39.291Z,13.53
2018-10-18T02:35:07.939Z,13.50
2018-10-18T02:37:36.601Z,14.43
2018-10-18T02:40:05.312Z,14.27
2018-10-18T02:42:34.061Z,12.77
2018-10-18T02:45:02.775Z,15.40
2018-10-18T02:47:31.408Z,16.27
2018-10-18T02:50:00.029Z,16.67
2018-10-18T02:52:28.696Z,15.57
2018-10-18T02:54:57.276Z,14.20
2018-10-18T02:57:25.890Z,15.93
2018-10-18T02:59:54.613Z,14.47
2018-10-18T03:02:23.252Z,14.40
2018-10-18T03:04:51.835Z,14.10
2018-10-18T03:07:20.548Z,15.17
2018-10-18T03:09:49.185Z,15.97
2018-10-18T03:12:17.840Z,14.87
2018-10-18T03:14:46.420Z,15.43
2018-10-18T03:17:15.009Z,15.73
2018-10-18T03:19:43.616Z,15.50
2018-10-18T03:22:12.311Z,15.80
2018-10-18T03:24:40.887Z,15.10
2018-10-18T03:27:09.528Z,17.47
2018-10-18T03:29:38.227Z,15.97
2018-10-18T03:32:06.845Z,16.20
2018-10-18T03:34:35.458Z,15.40
2018-10-18T03:37:04.331Z,16.40
2018-10-18T03:39:32.932Z,14.70
2018-10-18T03:42:01.576Z,16.17
2018-10-18T03:44:30.308Z,15.27
2018-10-18T03:46:58.903Z,14.70
2018-10-18T03:49:27.455Z,15.57
2018-10-18T03:51:56.080Z,17.20
2018-10-18T03:54:24.704Z,17.30
2018-10-18T03:56:53.288Z,17.30
2018-10-18T03:59:22.041Z,17.03
2018-10-18T04:01:50.663Z,15.87
2018-10-18T04:04:19.392Z,16.70
2018-10-18T04:06:48.465Z,17.10
2018-10-18T04:09:17.039Z,17.60
2018-10-18T04:11:45.664Z,16.63
2018-10-18T04:14:14.367Z,15.40
2018-10-18T04:16:42.945Z,16.30
2018-10-18T04:19:11.530Z,16.47
2018-10-18T04:21:40.323Z,15.93
2018-10-18T04:24:08.981Z,16.67
2018-10-18T04:26:37.540Z,16.00
2018-10-18T04:29:06.173Z,15.50
2018-10-18T04:31:34.748Z,14.97
2018-10-18T04:34:03.324Z,18.57
2018-10-18T04:36:32.092Z,18.20
2018-10-18T04:39:00.716Z,16.60
2018-10-18T04:41:29.620Z,15.40
2018-10-18T04:43:58.231Z,15.43
2018-10-18T04:46:27.310Z,14.83
2018-10-18T04:48:56.016Z,16.27
2018-10-18T04:51:24.580Z,16.13
2018-10-18T04:53:53.144Z,17.77
2018-10-18T04:56:21.713Z,14.87
2018-10-18T04:58:50.336Z,15.90
2018-10-18T05:01:19.707Z,16.53
2018-10-18T05:03:48.267Z,15.50
2018-10-18T05:06:17.287Z,15.57
2018-10-18T05:08:45.868Z,17.03
2018-10-18T05:11:14.507Z,17.07
2018-10-18T05:13:43.121Z,16.83
2018-10-18T05:16:11.690Z,16.23
2018-10-18T05:18:40.263Z,16.00
2018-10-18T05:21:08.871Z,15.83
2018-10-18T05:23:37.816Z,16.87
2018-10-18T05:26:07.541Z,17.67
2018-10-18T05:28:36.179Z,16.30
2018-10-18T05:31:04.924Z,15.13
2018-10-18T05:33:33.472Z,15.17
2018-10-18T05:36:02.256Z,17.33
2018-10-18T05:38:30.835Z,15.20
2018-10-18T05:40:59.413Z,15.67
2018-10-18T05:43:28.100Z,15.77
2018-10-18T05:45:57.007Z,15.83
2018-10-18T05:48:25.590Z,16.77
2018-10-18T05:50:54.184Z,14.20
2018-10-18T05:53:22.769Z,16.20
2018-10-18T05:55:51.356Z,16.70
2018-10-18T05:58:19.947Z,15.03
2018-10-18T06:00:48.540Z,17.57
2018-10-18T06:03:17.109Z,15.90
2018-10-18T06:05:45.772Z,16.30
2018-10-18T06:08:14.347Z,16.20
2018-10-18T06:10:54.094Z,16.60
2018-10-18T06:13:22.656Z,15.20
2018-10-18T06:15:51.224Z,16.17
2018-10-18T06:18:19.815Z,16.30
2018-10-18T06:20:48.396Z,14.03
2018-10-18T06:23:17.073Z,15.50
2018-10-18T06:25:45.693Z,16.03
2018-10-18T06:28:14.271Z,17.10
2018-10-18T06:30:42.831Z,15.77
2018-10-18T06:33:11.519Z,15.23
2018-10-18T06:35:40.070Z,16.70
2018-10-18T06:38:08.650Z,18.17
2018-10-18T06:40:37.263Z,17.53
2018-10-18T06:43:05.900Z,15.40
2018-10-18T06:45:34.482Z,17.97
2018-10-18T06:48:03.270Z,17.30
2018-10-18T06:50:31.800Z,17.77
2018-10-18T06:53:00.368Z,16.97
2018-10-18T06:55:29.004Z,16.30
2018-10-18T06:57:57.563Z,15.70
2018-10-18T07:00:26.225Z,16.90
2018-10-18T07:02:54.883Z,16.43
2018-10-18T07:05:25.512Z,16.30
2018-10-18T07:07:54.108Z,17.07
2018-10-18T07:10:22.709Z,16.60
2018-10-18T07:12:51.285Z,16.00
2018-10-18T07:15:19.909Z,15.73
2018-10-18T07:17:48.577Z,16.60
2018-10-18T07:20:17.119Z,18.10
2018-10-18T07:22:47.988Z,17.30
2018-10-18T07:25:16.963Z,16.67
2018-10-18T07:27:45.416Z,17.57
2018-10-18T07:30:15.116Z,17.20
2018-10-18T07:32:43.702Z,18.80
2018-10-18T07:35:13.472Z,17.17
2018-10-18T07:37:42.344Z,16.60
2018-10-18T07:40:13.695Z,17.10
2018-10-18T07:42:42.316Z,17.97
2018-10-18T07:45:11.916Z,17.27
2018-10-18T07:47:40.891Z,17.83
2018-10-18T07:50:10.091Z,18.77
2018-10-18T07:52:38.671Z,17.93
2018-10-18T07:55:08.215Z,18.57
2018-10-18T07:57:36.837Z,18.67
2018-10-18T08:00:07.481Z,18.20
2018-10-18T08:02:36.091Z,17.93
2018-10-18T08:05:05.941Z,18.63
2018-10-18T08:07:34.582Z,17.93
2018-10-18T08:10:03.692Z,16.73
2018-10-18T08:12:32.627Z,19.43
2018-10-18T08:15:01.175Z,18.87
2018-10-18T08:17:29.899Z,18.90
2018-10-18T08:19:58.465Z,20.00
2018-10-18T08:22:27.111Z,18.43
2018-10-18T08:24:55.791Z,20.30
2018-10-18T08:27:24.348Z,20.50
2018-10-18T08:29:52.920Z,19.03
2018-10-18T08:32:21.615Z,18.93
2018-10-18T08:34:50.179Z,19.97
2018-10-18T08:37:18.830Z,21.50
2018-10-18T08:39:47.534Z,23.07
2018-10-18T08:42:16.108Z,24.47
2018-10-18T08:44:44.669Z,24.87
2018-10-18T08:47:13.380Z,23.33
2018-10-18T08:49:41.986Z,24.67
2018-10-18T08:52:10.548Z,28.20
2018-10-18T08:54:39.215Z,30.00
2018-10-18T08:57:07.784Z,28.30
2018-10-18T08:59:36.347Z,29.07
2018-10-18T09:02:05.320Z,27.67
2018-10-18T09:04:33.919Z,27.47
2018-10-18T09:07:02.523Z,29.20
2018-10-18T09:09:31.238Z,26.70
2018-10-18T09:11:59.814Z,26.20
2018-10-18T09:14:28.828Z,26.70
2018-10-18T09:16:57.906Z,24.60
2018-10-18T09:19:26.491Z,26.63
2018-10-18T09:21:55.079Z,27.13
2018-10-18T09:24:23.808Z,26.43
2018-10-18T09:26:52.427Z,24.40
2018-10-18T09:29:20.979Z,29.30
2018-10-18T09:31:49.588Z,24.60
2018-10-18T09:34:18.172Z,24.90
2018-10-18T09:36:46.755Z,21.50
2018-10-18T09:39:15.391Z,24.20
2018-10-18T09:41:43.998Z,24.13
2018-10-18T09:44:12.600Z,22.93
2018-10-18T09:46:41.216Z,22.10
2018-10-18T09:49:09.798Z,24.23
2018-10-18T09:51:38.352Z,22.33
2018-10-18T09:54:07.069Z,23.70
2018-10-18T09:56:35.643Z,23.70
2018-10-18T09:59:04.233Z,23.70
2018-10-18T10:01:38.212Z,23.67
2018-10-18T10:04:06.858Z,23.40
2018-10-18T10:06:35.426Z,22.40
2018-10-18T10:09:04.312Z,21.43
2018-10-18T10:11:32.909Z,23.17
2018-10-18T10:14:01.440Z,24.73
2018-10-18T10:16:30.103Z,22.00
2018-10-18T10:18:58.677Z,22.47
2018-10-18T10:21:27.272Z,22.50
2018-10-18T10:23:55.900Z,22.97
2018-10-18T10:26:24.491Z,23.30
2018-10-18T10:28:53.079Z,23.67
2018-10-18T10:31:21.760Z,24.73
2018-10-18T10:33:50.327Z,21.23
2018-10-18T10:36:18.899Z,22.10
2018-10-18T10:38:47.576Z,20.47
2018-10-18T10:41:16.237Z,21.80
2018-10-18T10:43:45.123Z,21.00
2018-10-18T10:46:13.880Z,23.07
2018-10-18T10:48:42.420Z,22.63
2018-10-18T10:51:11.002Z,25.23
2018-10-18T10:53:39.687Z,22.47
2018-10-18T10:56:08.787Z,23.23
2018-10-18T10:58:37.271Z,22.80
2018-10-18T11:01:14.191Z,21.40
2018-10-18T11:03:43.364Z,22.53
2018-10-18T11:06:12.386Z,23.03
2018-10-18T11:08:40.994Z,20.80
2018-10-18T11:11:10.121Z,22.13
2018-10-18T11:13:38.715Z,23.63
2018-10-18T11:16:07.791Z,22.13
2018-10-18T11:18:37.461Z,20.70
2018-10-18T11:21:07.439Z,21.27
2018-10-18T11:23:36.359Z,21.13
2018-10-18T11:26:05.184Z,20.43
2018-10-18T11:28:34.192Z,20.03
2018-10-18T11:31:02.804Z,19.83
2018-10-18T11:33:31.426Z,21.13
2018-10-18T11:36:00.146Z,22.00
2018-10-18T11:38:28.718Z,21.00
2018-10-18T11:40:57.311Z,19.20
2018-10-18T11:43:25.952Z,19.47
2018-10-18T11:45:54.543Z,19.73
2018-10-18T11:48:23.115Z,18.37
2018-10-18T11:50:51.802Z,17.73
2018-10-18T11:53:20.383Z,19.00
2018-10-18T11:55:48.952Z,19.90
2018-10-18T11:58:17.663Z,18.47
2018-10-18T12:00:46.259Z,18.70
2018-10-18T12:03:15.400Z,18.67
2018-10-18T12:05:44.043Z,19.07
2018-10-18T12:08:12.710Z,18.93
2018-10-18T12:10:41.261Z,18.73
2018-10-18T12:13:09.896Z,21.50
2018-10-18T12:15:38.468Z,17.60
2018-10-18T12:18:07.058Z,20.13
2018-10-18T12:20:35.692Z,18.40
2018-10-18T12:23:04.351Z,21.17
2018-10-18T12:25:32.899Z,18.27
2018-10-18T12:28:01.472Z,17.87
2018-10-18T12:30:30.038Z,18.00
2018-10-18T12:32:58.608Z,16.03
2018-10-18T12:35:27.256Z,19.00
2018-10-18T12:37:55.917Z,16.30
2018-10-18T12:40:24.636Z,17.70
2018-10-18T12:42:53.207Z,17.70
2018-10-18T12:45:21.779Z,17.20
2018-10-18T12:47:50.361Z,18.17
2018-10-18T12:50:19.373Z,15.80
2018-10-18T12:52:47.940Z,18.60
2018-10-18T12:55:16.527Z,18.43
2018-10-18T12:57:45.128Z,18.43
2018-10-18T13:00:13.794Z,17.67
2018-10-18T13:02:42.318Z,15.83
2018-10-18T13:05:11.631Z,19.20
2018-10-18T13:07:40.356Z,18.50
2018-10-18T13:10:11.116Z,17.47
2018-10-18T13:12:39.939Z,18.30
2018-10-18T13:15:10.199Z,17.33
2018-10-18T13:17:39.113Z,18.40
2018-10-18T13:20:08.893Z,17.97
2018-10-18T13:22:37.513Z,18.10
2018-10-18T13:25:08.236Z,17.17
2018-10-18T13:27:37.255Z,16.77
2018-10-18T13:30:07.771Z,15.87
2018-10-18T13:32:36.297Z,17.37
2018-10-18T13:35:05.256Z,16.43
2018-10-18T13:37:33.947Z,18.03
2018-10-18T13:40:03.395Z,17.27
2018-10-18T13:42:31.969Z,16.67
2018-10-18T13:45:00.684Z,16.97
2018-10-18T13:47:29.271Z,15.60
2018-10-18T13:49:57.861Z,17.67
2018-10-18T13:52:26.495Z,18.17
2018-10-18T13:54:55.071Z,16.03
2018-10-18T13:57:23.724Z,15.30
2018-10-18T14:00:03.632Z,15.90
2018-10-18T14:02:32.190Z,15.10
2018-10-18T14:05:00.784Z,15.20
2018-10-18T14:07:29.496Z,15.10
2018-10-18T14:09:58.092Z,15.60
2018-10-18T14:12:26.680Z,15.87
2018-10-18T14:14:55.516Z,14.73
2018-10-18T14:17:24.256Z,14.80
2018-10-18T14:19:52.743Z,14.80
2018-10-18T14:22:21.383Z,15.57
2018-10-18T14:24:50.047Z,14.37
2018-10-18T14:27:18.611Z,15.17
2018-10-18T14:29:47.215Z,14.70
2018-10-18T14:32:15.819Z,15.23
2018-10-18T14:34:44.387Z,13.70
2018-10-18T14:37:13.031Z,13.17
2018-10-18T14:39:41.600Z,13.87
2018-10-18T14:42:10.184Z,13.50
2018-10-18T14:44:39.124Z,13.80
2018-10-18T14:47:07.543Z,13.80
2018-10-18T14:49:36.089Z,13.13
2018-10-18T14:52:04.828Z,14.00
2018-10-18T14:54:33.431Z,13.03
2018-10-18T14:57:02.064Z,13.60
2018-10-18T14:59:30.815Z,14.77
2018-10-18T15:01:59.527Z,13.00
2018-10-18T15:04:28.180Z,14.07
2018-10-18T15:06:57.024Z,13.87
2018-10-18T15:09:25.726Z,11.60
2018-10-18T15:11:54.371Z,12.50
2018-10-18T15:14:23.048Z,13.97
2018-10-18T15:16:51.645Z,13.57
2018-10-18T15:19:20.263Z,12.00
2018-10-18T15:21:48.896Z,13.30
2018-10-18T15:24:17.820Z,13.27
2018-10-18T15:26:46.534Z,15.10
2018-10-18T15:29:15.111Z,13.70
2018-10-18T15:31:43.633Z,13.57
2018-10-18T15:34:12.251Z,12.03
2018-10-18T15:36:40.983Z,12.60
2018-10-18T15:39:10.576Z,12.50
2018-10-18T15:41:40.085Z,11.57
2018-10-18T15:44:09.196Z,12.57
2018-10-18T15:46:38.320Z,12.77
2018-10-18T15:49:07.796Z,11.27
2018-10-18T15:51:36.935Z,12.00
2018-10-18T15:54:06.511Z,12.00
2018-10-18T15:56:35.527Z,11.40
2018-10-18T15:59:04.199Z,12.30
2018-10-18T16:01:32.756Z,12.70
2018-10-18T16:04:01.882Z,11.93
2018-10-18T16:06:30.572Z,13.03
2018-10-18T16:08:59.257Z,11.00
2018-10-18T16:11:28.037Z,11.93
2018-10-18T16:13:56.560Z,11.40
2018-10-18T16:16:25.655Z,10.67
2018-10-18T16:18:54.832Z,11.03
2018-10-18T16:21:23.979Z,10.17
2018-10-18T16:23:52.595Z,10.67
2018-10-18T16:26:21.699Z,10.60
2018-10-18T16:28:50.254Z,10.90
2018-10-18T16:31:18.867Z,10.77
2018-10-18T16:33:47.587Z,10.60
2018-10-18T16:36:16.202Z,9.77
2018-10-18T16:38:44.784Z,10.63
2018-10-18T16:41:14.585Z,11.30
2018-10-18T16:43:42.958Z,10.73
2018-10-18T16:46:11.566Z,12.20
2018-10-18T16:48:40.245Z,11.57
2018-10-18T16:51:09.124Z,11.63
2018-10-18T16:53:37.703Z,11.33
2018-10-18T16:56:06.451Z,11.60
2018-10-18T16:58:35.027Z,11.47
2018-10-18T17:01:03.661Z,11.90
2018-10-18T17:03:32.349Z,11.27
2018-10-18T17:06:01.015Z,10.30
2018-10-18T17:08:29.605Z,11.53
2018-10-18T17:10:58.259Z,11.00
2018-10-18T17:13:26.852Z,9.83
2018-10-18T17:15:55.439Z,10.47
2018-10-18T17:18:24.240Z,10.33
2018-10-18T17:20:54.864Z,11.37
2018-10-18T17:23:23.871Z,10.77
2018-10-18T17:25:52.623Z,11.50
2018-10-18T17:28:22.154Z,10.10
2018-10-18T17:30:51.611Z,11.60
2018-10-18T17:33:20.827Z,11.53
2018-10-18T17:35:50.225Z,10.23
2018-10-18T17:38:19.982Z,11.30
2018-10-18T17:40:49.691Z,10.37
2018-10-18T17:43:18.868Z,9.97
2018-10-18T17:45:49.214Z,10.17
2018-10-18T17:48:18.866Z,11.43
2018-10-18T17:50:49.248Z,11.10
2018-10-18T17:53:18.388Z,11.40
2018-10-18T17:55:47.495Z,10.57
2018-10-18T17:58:17.402Z,11.37
2018-10-18T18:00:46.572Z,12.60
2018-10-18T18:03:16.368Z,11.50
2018-10-18T18:05:46.004Z,10.83
2018-10-18T18:08:15.658Z,10.80
2018-10-18T18:10:44.567Z,12.20
2018-10-18T18:13:14.133Z,11.70
2018-10-18T18:15:45.072Z,11.40
2018-10-18T18:18:13.743Z,12.90
2018-10-18T18:20:42.464Z,13.87
2018-10-18T18:23:11.958Z,12.47
2018-10-18T18:25:40.762Z,13.67
2018-10-18T18:28:09.492Z,13.40
2018-10-18T18:30:38.491Z,12.83
2018-10-18T18:33:07.131Z,12.93
2018-10-18T18:35:35.775Z,13.73
2018-10-18T18:38:04.720Z,12.23
2018-10-18T18:40:33.912Z,14.10
2018-10-18T18:43:02.843Z,13.80
2018-10-18T18:45:33.845Z,15.27
2018-10-18T18:48:03.479Z,15.87
2018-10-18T18:50:32.716Z,14.50
2018-10-18T18:53:02.389Z,13.97
2018-10-18T18:55:31.619Z,15.20
2018-10-18T18:58:00.298Z,14.80
2018-10-18T19:00:29.572Z,14.60
2018-10-18T19:02:58.743Z,14.77
2018-10-18T19:05:27.299Z,16.77
2018-10-18T19:07:55.943Z,15.50
2018-10-18T19:10:24.639Z,14.87
2018-10-18T19:12:53.223Z,15.37
2018-10-18T19:15:21.935Z,16.10
2018-10-18T19:17:50.536Z,14.80
2018-10-18T19:20:19.128Z,15.73
2018-10-18T19:22:47.857Z,14.77
2018-10-18T19:25:16.390Z,15.53
2018-10-18T19:27:45.080Z,16.00
2018-10-18T19:30:13.706Z,17.27
2018-10-18T19:32:42.347Z,15.63
2018-10-18T19:35:10.929Z,16.80
2018-10-18T19:37:39.560Z,17.23
2018-10-18T19:40:08.897Z,17.20
2018-10-18T19:42:37.596Z,17.80
2018-10-18T19:45:07.884Z,17.97
2018-10-18T19:47:44.956Z,16.90
2018-10-18T19:50:13.622Z,17.50
2018-10-18T19:52:42.283Z,18.70
2018-10-18T19:55:11.248Z,19.40
2018-10-18T19:57:39.860Z,18.83
2018-10-18T20:00:09.402Z,18.70
2018-10-18T20:02:38.322Z,20.27
2018-10-18T20:05:07.729Z,19.27
2018-10-18T20:07:36.403Z,20.67
2018-10-18T20:10:05.536Z,20.03
2018-10-18T20:12:34.359Z,19.57
2018-10-18T20:15:03.624Z,21.70
2018-10-18T20:17:32.436Z,21.37
2018-10-18T20:20:01.271Z,20.90
2018-10-18T20:22:30.231Z,21.47
2018-10-18T20:24:58.976Z,21.27
2018-10-18T20:27:27.501Z,23.63
2018-10-18T20:29:56.151Z,20.10
2018-10-18T20:32:24.776Z,21.83
2018-10-18T20:34:53.388Z,23.33
2018-10-18T20:37:22.010Z,21.00
2018-10-18T20:39:50.852Z,19.93
2018-10-18T20:42:19.445Z,19.47
2018-10-18T20:44:48.076Z,20.10
2018-10-18T20:47:16.772Z,18.90
2018-10-18T20:49:46.420Z,21.23
2018-10-18T20:52:14.999Z,19.87
2018-10-18T20:54:43.646Z,22.50
2018-10-18T20:57:12.364Z,22.10
2018-10-18T20:59:40.857Z,22.53
2018-10-18T21:02:09.437Z,23.87
2018-10-18T21:04:38.043Z,24.10
2018-10-18T21:07:07.300Z,25.23
2018-10-18T21:09:35.882Z,22.10
2018-10-18T21:12:05.154Z,21.70
2018-10-18T21:14:33.757Z,21.27
2018-10-18T21:17:02.608Z,25.30
2018-10-18T21:19:31.729Z,26.03
2018-10-18T21:22:00.431Z,25.50
2018-10-18T21:24:29.181Z,26.80
2018-10-18T21:26:57.817Z,25.00
2018-10-18T21:29:26.433Z,23.80
2018-10-18T21:31:55.219Z,27.30
2018-10-18T21:34:23.900Z,27.07
2018-10-18T21:36:52.511Z,30.33
2018-10-18T21:39:27.277Z,28.97
2018-10-18T21:41:55.903Z,30.90
2018-10-18T21:44:28.803Z,27.20
2018-10-18T21:46:57.626Z,27.87
2018-10-18T21:49:26.898Z,25.20
2018-10-18T21:51:55.583Z,25.47
2018-10-18T21:54:24.448Z,27.83
2018-10-18T21:56:53.089Z,26.17
2018-10-18T21:59:21.800Z,25.57
2018-10-18T22:01:50.437Z,25.60
2018-10-18T22:04:19.016Z,24.10
2018-10-18T22:06:48.466Z,25.47
2018-10-18T22:09:17.788Z,26.73
2018-10-18T22:11:47.041Z,26.67
2018-10-18T22:14:15.777Z,26.37
2018-10-18T22:16:44.355Z,25.60
2018-10-18T22:19:12.924Z,23.60
2018-10-18T22:21:41.561Z,24.33
2018-10-18T22:24:11.293Z,29.57
2018-10-18T22:26:39.947Z,26.77
2018-10-18T22:29:08.859Z,24.90
2018-10-18T22:31:37.881Z,27.50
2018-10-18T22:34:06.624Z,26.03
2018-10-18T22:36:35.344Z,29.53
2018-10-18T22:39:05.073Z,26.23
2018-10-18T22:41:33.643Z,27.57
2018-10-18T22:44:02.248Z,27.50
2018-10-18T22:46:30.848Z,26.77
2018-10-18T22:48:59.479Z,27.77
2018-10-18T22:51:28.121Z,25.70
2018-10-18T22:53:58.455Z,27.70
2018-10-18T22:56:28.021Z,27.27
2018-10-18T22:58:56.638Z,26.87
2018-10-18T23:01:25.256Z,25.20
2018-10-18T23:03:54.448Z,25.23
2018-10-18T23:06:23.059Z,26.50
2018-10-18T23:08:51.866Z,27.50
2018-10-18T23:11:20.652Z,26.80
2018-10-18T23:13:49.443Z,28.57
2018-10-18T23:16:18.100Z,32.07
2018-10-18T23:18:47.095Z,35.00
2018-10-18T23:21:15.880Z,33.37
2018-10-18T23:23:44.843Z,34.03
2018-10-18T23:26:13.587Z,31.37
2018-10-18T23:28:42.173Z,32.00
2018-10-18T23:31:10.777Z,29.93
2018-10-18T23:33:39.728Z,31.80
2018-10-18T23:36:08.350Z,30.60
2018-10-18T23:38:36.974Z,28.57
2018-10-18T23:41:06.337Z,31.50
2018-10-18T23:43:35.339Z,31.87
2018-10-18T23:46:03.935Z,30.13
2018-10-18T23:48:32.543Z,30.60
2018-10-18T23:51:01.133Z,29.90
2018-10-18T23:53:29.705Z,30.10
2018-10-18T23:55:58.400Z,30.03
2018-10-18T23:58:26.971Z,33.40
